Time;durP1;ratioP1;P1;durP2;ratioP2;P2;SDS_P1;SDS_P2;PMS_P1;PMS_P2;Temp;Humidity;BMP_temperature;BMP_pressure;BME280_temperature;BME280_humidity;BME280_pressure;Samples;Min_cycle;Max_cycle;Signal;HPM_P1;HPM_P2
2021/04/30 00:00:31;;;;;;;20.60;18.80;;;;;;;;;;4938786;29;20965;-87
2021/04/30 00:03:36;;;;;;;19.23;17.57;;;;;;;;;;4956978;29;20432;-86
2021/04/30 00:06:30;;;;;;;21.47;19.23;;;;;;;;;;4952729;29;20401;-84
2021/04/30 00:09:11;;;;;;;18.93;17.33;;;;;;;;;;4946428;29;20444;-85
2021/04/30 00:12:02;;;;;;;17.83;16.27;;;;;;;;;;4964149;29;20409;-84
2021/04/30 00:14:49;;;;;;;18.40;16.60;;;;;;;;;;4987231;28;20424;-87
2021/04/30 00:17:41;;;;;;;17.80;16.20;;;;;;;;;;5005339;28;20447;-86
2021/04/30 00:20:35;;;;;;;17.00;15.57;;;;;;;;;;5019135;28;20431;-85
2021/04/30 00:23:46;;;;;;;17.83;16.23;;;;;;;;;;4999181;28;20411;-85
2021/04/30 00:29:52;;;;;;;17.83;16.23;;;;;;;;;;5010312;28;20422;-85
2021/04/30 00:32:53;;;;;;;16.10;14.50;;;;;;;;;;5034940;28;20495;-84
2021/04/30 00:42:31;;;;;;;16.57;14.90;;;;;;;;;;5031077;28;20811;-87
2021/04/30 00:45:59;;;;;;;15.20;13.90;;;;;;;;;;5010692;28;20434;-85
2021/04/30 00:48:15;;;;;;;15.27;13.87;;;;;;;;;;5021438;28;20446;-85
2021/04/30 00:50:49;;;;;;;14.53;13.13;;;;;;;;;;5027364;28;20405;-86
2021/04/30 00:53:33;;;;;;;16.37;14.93;;;;;;;;;;5010824;28;20402;-85
2021/04/30 00:56:09;;;;;;;17.90;16.10;;;;;;;;;;5025101;28;20631;-85
2021/04/30 00:58:41;;;;;;;16.90;15.30;;;;;;;;;;5024196;28;20504;-86
2021/04/30 01:01:30;;;;;;;17.53;15.00;;;;;;;;;;5024787;28;20436;-87
2021/04/30 01:04:35;;;;;;;16.07;14.70;;;;;;;;;;5022911;28;20462;-86
2021/04/30 01:10:51;;;;;;;16.70;15.27;;;;;;;;;;5046983;28;20452;-84
2021/04/30 01:13:36;;;;;;;;;;;;;;;;;;;;;
2021/04/30 01:24:47;;;;;;;16.80;15.27;;;;;;;;;;5025500;28;20431;-84
2021/04/30 01:38:21;;;;;;;17.00;15.60;;;;;;;;;;4238137;27;20472;-85
2021/04/30 01:40:59;;;;;;;16.73;15.30;;;;;;;;;;5007913;28;20480;-85
2021/04/30 01:43:39;;;;;;;16.77;15.27;;;;;;;;;;4991862;28;20400;-86
2021/04/30 01:46:13;;;;;;;17.90;16.30;;;;;;;;;;4994692;28;20396;-85
2021/04/30 01:49:18;;;;;;;17.03;15.07;;;;;;;;;;5003580;28;20424;-86
2021/04/30 01:52:02;;;;;;;17.73;16.33;;;;;;;;;;4994729;28;20424;-82
2021/04/30 01:54:33;;;;;;;18.70;17.10;;;;;;;;;;4994737;28;20419;-84
2021/04/30 01:57:07;;;;;;;15.03;13.73;;;;;;;;;;5013846;28;20489;-82
2021/04/30 01:59:44;;;;;;;;;;;;;;;;;;;;;
2021/04/30 02:02:50;;;;;;;16.43;14.93;;;;;;;;;;5010215;28;20442;-81
2021/04/30 02:05:40;;;;;;;;;;;;;;;;;;;;;
2021/04/30 02:08:17;;;;;;;15.17;13.87;;;;;;;;;;5016045;28;20428;-81
2021/04/30 02:10:49;;;;;;;15.63;14.13;;;;;;;;;;5012455;28;20504;-82
2021/04/30 02:13:40;;;;;;;;;;;;;;;;;;;;;
2021/04/30 02:16:48;;;;;;;16.07;14.63;;;;;;;;;;5011031;28;20419;-83
2021/04/30 02:19:54;;;;;;;15.63;14.27;;;;;;;;;;5008646;28;20455;-82
2021/04/30 02:22:49;;;;;;;15.97;14.67;;;;;;;;;;4993979;28;20439;-82
2021/04/30 02:28:46;;;;;;;15.67;14.07;;;;;;;;;;5008737;28;20828;-81
2021/04/30 02:31:44;;;;;;;13.20;12.03;;;;;;;;;;4974550;28;20428;-83
2021/04/30 02:34:29;;;;;;;14.30;13.00;;;;;;;;;;4962878;28;20777;-80
2021/04/30 02:39:44;;;;;;;14.53;13.03;;;;;;;;;;4789031;26;21036;-81
2021/04/30 02:42:20;;;;;;;15.20;13.73;;;;;;;;;;4987502;28;20437;-82
2021/04/30 02:45:01;;;;;;;16.07;14.73;;;;;;;;;;4988725;28;20395;-82
2021/04/30 02:47:46;;;;;;;14.80;13.43;;;;;;;;;;4970038;28;20505;-79
2021/04/30 02:50:25;;;;;;;14.87;13.37;;;;;;;;;;4970752;28;20405;-82
2021/04/30 02:53:17;;;;;;;16.37;14.87;;;;;;;;;;4971779;28;20500;-82
2021/04/30 02:56:08;;;;;;;14.90;13.20;;;;;;;;;;4983409;28;20382;-82
2021/04/30 02:59:01;;;;;;;16.30;14.70;;;;;;;;;;4986247;28;20464;-82
2021/04/30 03:01:48;;;;;;;16.07;14.47;;;;;;;;;;4950802;29;20430;-83
2021/04/30 03:04:44;;;;;;;15.17;13.87;;;;;;;;;;4969654;28;20413;-81
2021/04/30 03:07:28;;;;;;;;;;;;;;;;;;;;;
2021/04/30 03:09:54;;;;;;;14.17;13.03;;;;;;;;;;4970924;28;20386;-83
2021/04/30 03:15:22;;;;;;;15.70;14.30;;;;;;;;;;4955398;28;20414;-82
2021/04/30 03:17:55;;;;;;;16.30;14.70;;;;;;;;;;4987256;28;20445;-83
2021/04/30 03:20:22;;;;;;;15.83;14.43;;;;;;;;;;4975704;28;20402;-83
2021/04/30 03:22:56;;;;;;;14.77;13.37;;;;;;;;;;4978379;28;20814;-82
2021/04/30 03:25:23;;;;;;;14.63;13.23;;;;;;;;;;4973730;28;20410;-82
2021/04/30 03:27:58;;;;;;;15.47;14.13;;;;;;;;;;4971988;28;20457;-82
2021/04/30 03:30:32;;;;;;;15.63;14.23;;;;;;;;;;4971468;28;20771;-83
2021/04/30 03:33:31;;;;;;;20.00;17.87;;;;;;;;;;4972382;28;20493;-84
2021/04/30 03:36:15;;;;;;;17.90;16.20;;;;;;;;;;4970053;28;20472;-83
2021/04/30 03:38:44;;;;;;;17.10;15.30;;;;;;;;;;4974160;28;20464;-82
2021/04/30 03:41:13;;;;;;;21.30;18.13;;;;;;;;;;4972015;28;20418;-80
2021/04/30 03:43:42;;;;;;;20.23;18.53;;;;;;;;;;4969459;28;20473;-82
2021/04/30 03:46:24;;;;;;;19.67;17.87;;;;;;;;;;4973259;28;20410;-82
2021/04/30 03:49:02;;;;;;;19.63;17.77;;;;;;;;;;4987216;28;20390;-81
2021/04/30 03:51:45;;;;;;;20.00;18.03;;;;;;;;;;4987042;28;20381;-83
2021/04/30 03:54:14;;;;;;;19.50;17.60;;;;;;;;;;4987263;28;20413;-81
2021/04/30 03:56:59;;;;;;;19.90;17.90;;;;;;;;;;4971140;28;20433;-82
2021/04/30 04:02:32;;;;;;;18.00;16.30;;;;;;;;;;4991756;28;20425;-81
2021/04/30 04:05:01;;;;;;;18.40;16.73;;;;;;;;;;4972142;28;20477;-81
2021/04/30 04:07:29;;;;;;;17.33;15.50;;;;;;;;;;4973149;28;20433;-82
2021/04/30 04:09:58;;;;;;;16.90;15.40;;;;;;;;;;4974803;28;20481;-83
2021/04/30 04:12:42;;;;;;;17.77;16.07;;;;;;;;;;4974515;28;20158;-82
2021/04/30 04:15:12;;;;;;;19.60;17.60;;;;;;;;;;4989321;28;20389;-83
2021/04/30 04:17:38;;;;;;;17.27;15.57;;;;;;;;;;4990673;28;20490;-82
2021/04/30 04:20:08;;;;;;;18.40;16.60;;;;;;;;;;4977497;28;20498;-81
2021/04/30 04:22:34;;;;;;;19.33;17.63;;;;;;;;;;4977175;28;20492;-82
2021/04/30 04:25:03;;;;;;;17.53;15.73;;;;;;;;;;4975340;28;20441;-82
2021/04/30 04:28:00;;;;;;;16.87;15.37;;;;;;;;;;4972444;28;20446;-82
2021/04/30 04:31:00;;;;;;;18.50;16.83;;;;;;;;;;4974289;28;20414;-80
2021/04/30 04:33:56;;;;;;;;;;;;;;;;;;;;;
2021/04/30 04:36:28;;;;;;;17.67;16.00;;;;;;;;;;4985991;28;20455;-82
2021/04/30 04:39:00;;;;;;;19.53;17.63;;;;;;;;;;4968500;28;20473;-82
2021/04/30 04:41:32;;;;;;;17.00;15.63;;;;;;;;;;4987401;28;20405;-81
2021/04/30 04:44:19;;;;;;;18.50;17.00;;;;;;;;;;4974990;28;20401;-80
2021/04/30 04:47:45;;;;;;;16.93;15.47;;;;;;;;;;4972621;28;20422;-80
2021/04/30 04:50:39;;;;;;;16.37;14.70;;;;;;;;;;4940140;29;20425;-84
2021/04/30 04:54:03;;;;;;;18.77;16.97;;;;;;;;;;4910975;29;20413;-81
2021/04/30 04:56:34;;;;;;;20.10;18.23;;;;;;;;;;4931195;28;20437;-84
2021/04/30 04:59:24;;;;;;;17.53;15.93;;;;;;;;;;4970061;28;20469;-84
2021/04/30 05:01:50;;;;;;;16.73;15.03;;;;;;;;;;4980200;28;20417;-85
2021/04/30 05:04:16;;;;;;;17.47;15.87;;;;;;;;;;4967662;28;20449;-85
2021/04/30 05:06:42;;;;;;;19.27;17.47;;;;;;;;;;4973748;28;20452;-85
2021/04/30 05:09:10;;;;;;;18.50;16.70;;;;;;;;;;4992270;28;20486;-84
2021/04/30 05:11:43;;;;;;;18.60;16.70;;;;;;;;;;4972816;28;20819;-83
2021/04/30 05:14:12;;;;;;;19.53;17.80;;;;;;;;;;4968259;28;20424;-83
2021/04/30 05:17:36;;;;;;;18.30;15.70;;;;;;;;;;4967218;28;20468;-83
2021/04/30 05:20:14;;;;;;;17.80;16.20;;;;;;;;;;4969735;28;20509;-83
2021/04/30 05:23:26;;;;;;;17.63;15.93;;;;;;;;;;4973312;28;20508;-84
2021/04/30 05:26:13;;;;;;;16.97;15.33;;;;;;;;;;4984135;28;20431;-83
2021/04/30 05:29:00;;;;;;;18.03;16.50;;;;;;;;;;4978707;28;20413;-83
2021/04/30 05:31:35;;;;;;;18.40;16.80;;;;;;;;;;4982024;28;20429;-85
2021/04/30 05:34:13;;;;;;;18.90;17.00;;;;;;;;;;4972555;28;20477;-84
2021/04/30 05:36:49;;;;;;;17.87;16.27;;;;;;;;;;4983256;28;20437;-85
2021/04/30 05:39:30;;;;;;;17.77;16.17;;;;;;;;;;4981067;28;20579;-83
2021/04/30 05:42:11;;;;;;;;;;;;;;;;;;;;;
2021/04/30 05:45:09;;;;;;;18.87;17.00;;;;;;;;;;4969433;29;20377;-82
2021/04/30 05:48:32;;;;;;;18.03;16.33;;;;;;;;;;4984330;28;20476;-83
2021/04/30 05:51:01;;;;;;;17.07;15.47;;;;;;;;;;4969390;28;20489;-84
2021/04/30 05:53:59;;;;;;;15.73;14.13;;;;;;;;;;4973885;28;20425;-83
2021/04/30 05:56:28;;;;;;;14.60;13.40;;;;;;;;;;4970034;28;20432;-86
2021/04/30 05:59:12;;;;;;;14.87;13.47;;;;;;;;;;4968835;28;20461;-85
2021/04/30 06:01:48;;;;;;;15.73;14.47;;;;;;;;;;4969758;28;20493;-82
2021/04/30 06:04:26;;;;;;;14.27;13.03;;;;;;;;;;4991577;28;20409;-82
2021/04/30 06:07:10;;;;;;;16.00;14.30;;;;;;;;;;4976756;28;20439;-81
2021/04/30 06:09:42;;;;;;;15.07;13.60;;;;;;;;;;4978652;28;20486;-83
2021/04/30 06:12:09;;;;;;;16.27;14.77;;;;;;;;;;5054419;23;20492;-81
2021/04/30 06:15:08;;;;;;;15.83;14.43;;;;;;;;;;4956358;28;20423;-82
2021/04/30 06:17:41;;;;;;;16.70;14.97;;;;;;;;;;5048877;28;20452;-84
2021/04/30 06:20:07;;;;;;;14.17;12.77;;;;;;;;;;5021391;28;21002;-85
2021/04/30 06:22:49;;;;;;;14.37;12.97;;;;;;;;;;4942616;29;20406;-84
2021/04/30 06:25:33;;;;;;;12.97;11.77;;;;;;;;;;4950887;29;20458;-82
2021/04/30 06:28:10;;;;;;;13.67;12.33;;;;;;;;;;4945926;29;20465;-84
2021/04/30 06:30:47;;;;;;;12.60;11.47;;;;;;;;;;4929695;29;20507;-83
2021/04/30 06:34:04;;;;;;;13.80;12.40;;;;;;;;;;4928782;28;20429;-82
2021/04/30 06:36:15;;;;;;;12.87;11.70;;;;;;;;;;4947819;28;20505;-84
2021/04/30 06:42:12;;;;;;;10.20;9.10;;;;;;;;;;4957614;28;20441;-81
2021/04/30 06:45:15;;;;;;;;;;;;;;;;;;;;;
2021/04/30 06:48:06;;;;;;;10.70;9.80;;;;;;;;;;4965237;28;20484;-82
2021/04/30 06:50:52;;;;;;;9.93;9.03;;;;;;;;;;4944838;29;20421;-83
2021/04/30 07:19:30;;;;;;;6.13;5.53;;;;;;;;;;5219351;23;20488;-81
2021/04/30 07:21:56;;;;;;;5.40;4.90;;;;;;;;;;5049402;28;20423;-82
2021/04/30 07:24:23;;;;;;;4.47;4.07;;;;;;;;;;5051110;28;20512;-82
2021/04/30 07:26:49;;;;;;;4.70;4.37;;;;;;;;;;5054617;28;20440;-81
2021/04/30 07:29:15;;;;;;;4.00;3.70;;;;;;;;;;5051782;28;20437;-81
2021/04/30 07:31:55;;;;;;;5.17;4.77;;;;;;;;;;5052613;28;20905;-80
2021/04/30 07:34:24;;;;;;;3.60;3.30;;;;;;;;;;5069960;28;20436;-80
2021/04/30 07:37:17;;;;;;;5.30;4.80;;;;;;;;;;5054682;28;20418;-79
2021/04/30 07:39:53;;;;;;;5.00;4.60;;;;;;;;;;5055018;28;20546;-80
2021/04/30 07:42:19;;;;;;;5.43;4.80;;;;;;;;;;5053778;28;20456;-82
2021/04/30 07:44:57;;;;;;;5.63;5.13;;;;;;;;;;5054063;28;20424;-81
2021/04/30 07:47:24;;;;;;;5.50;5.00;;;;;;;;;;5070626;28;20452;-81
2021/04/30 07:49:50;;;;;;;5.97;5.47;;;;;;;;;;5028311;28;20426;-81
2021/04/30 07:52:17;;;;;;;6.30;5.77;;;;;;;;;;5041740;28;20431;-80
2021/04/30 07:54:43;;;;;;;6.73;5.57;;;;;;;;;;5044046;28;20455;-80
2021/04/30 07:57:10;;;;;;;6.27;5.77;;;;;;;;;;5061454;28;20869;-82
2021/04/30 07:59:36;;;;;;;6.00;5.27;;;;;;;;;;5045095;28;20455;-80
2021/04/30 08:02:05;;;;;;;5.90;5.40;;;;;;;;;;5037547;28;20543;-81
2021/04/30 08:04:31;;;;;;;5.07;4.70;;;;;;;;;;5040345;28;20513;-81
2021/04/30 08:06:58;;;;;;;6.20;5.70;;;;;;;;;;5024375;28;20425;-81
2021/04/30 08:09:24;;;;;;;5.47;4.97;;;;;;;;;;5023600;28;20410;-80
2021/04/30 08:11:51;;;;;;;5.30;4.80;;;;;;;;;;5042994;28;20851;-82
2021/04/30 08:14:20;;;;;;;5.00;4.70;;;;;;;;;;5040858;28;20414;-80
2021/04/30 08:16:53;;;;;;;6.90;6.00;;;;;;;;;;5041579;28;20429;-83
2021/04/30 08:19:19;;;;;;;6.03;5.37;;;;;;;;;;5039977;28;20561;-80
2021/04/30 08:22:22;;;;;;;7.17;6.57;;;;;;;;;;5042691;28;20414;-82
2021/04/30 08:32:03;;;;;;;6.93;6.33;;;;;;;;;;5047066;28;20381;-82
2021/04/30 08:34:49;;;;;;;6.27;4.97;;;;;;;;;;5045120;28;20466;-81
2021/04/30 10:43:38;;;;;;;5.80;5.40;;;;;;;;;;5042597;28;20473;-83
2021/04/30 10:49:06;;;;;;;5.07;4.67;;;;;;;;;;4924044;29;20475;-87
2021/04/30 10:51:39;;;;;;;4.40;4.10;;;;;;;;;;4941470;29;20467;-85
2021/04/30 10:54:28;;;;;;;4.40;4.00;;;;;;;;;;4927111;29;20420;-82
2021/04/30 10:57:05;;;;;;;3.97;3.67;;;;;;;;;;4937689;28;20470;-84
2021/04/30 10:59:38;;;;;;;7.77;4.33;;;;;;;;;;4939675;28;20561;-83
2021/04/30 11:02:28;;;;;;;4.20;3.90;;;;;;;;;;4924537;29;20487;-84
2021/04/30 11:05:12;;;;;;;4.60;4.30;;;;;;;;;;4925808;28;20423;-87
2021/04/30 11:08:00;;;;;;;5.37;4.13;;;;;;;;;;4925672;29;20443;-84
2021/04/30 11:10:32;;;;;;;4.57;4.20;;;;;;;;;;4941424;29;20424;-85
2021/04/30 11:13:16;;;;;;;5.40;3.80;;;;;;;;;;4925672;29;20431;-85
2021/04/30 11:15:45;;;;;;;4.83;4.43;;;;;;;;;;4928426;29;20420;-86
2021/04/30 11:18:20;;;;;;;5.07;4.67;;;;;;;;;;4946556;29;20451;-84
2021/04/30 11:21:04;;;;;;;7.00;4.40;;;;;;;;;;4932919;29;20539;-86
2021/04/30 11:23:39;;;;;;;4.50;4.10;;;;;;;;;;4933599;29;20446;-86
2021/04/30 11:26:07;;;;;;;5.20;4.60;;;;;;;;;;4950154;29;20499;-86
2021/04/30 11:28:34;;;;;;;4.17;3.80;;;;;;;;;;4947021;29;20461;-87
2021/04/30 11:31:04;;;;;;;5.80;5.20;;;;;;;;;;4946646;29;20477;-86
2021/04/30 11:33:31;;;;;;;4.67;4.33;;;;;;;;;;4949328;28;20447;-85
2021/04/30 11:35:58;;;;;;;4.57;4.20;;;;;;;;;;4948007;29;20414;-85
2021/04/30 11:38:34;;;;;;;5.93;5.47;;;;;;;;;;4949188;29;20491;-86
2021/04/30 11:41:01;;;;;;;5.63;5.23;;;;;;;;;;4936055;29;20499;-87
2021/04/30 11:43:27;;;;;;;5.50;5.00;;;;;;;;;;4952621;28;20431;-86
2021/04/30 11:45:55;;;;;;;6.20;5.67;;;;;;;;;;4936497;28;20436;-84
2021/04/30 11:48:34;;;;;;;6.73;5.80;;;;;;;;;;4936460;28;20551;-85
2021/04/30 11:51:03;;;;;;;6.40;5.80;;;;;;;;;;4936461;28;20436;-85
2021/04/30 11:53:29;;;;;;;7.00;6.47;;;;;;;;;;4937424;28;20423;-85
2021/04/30 11:55:57;;;;;;;5.37;4.97;;;;;;;;;;4950698;28;20435;-86
2021/04/30 11:58:35;;;;;;;5.53;5.00;;;;;;;;;;4930020;29;20482;-88
2021/04/30 12:01:02;;;;;;;6.17;5.67;;;;;;;;;;4943046;29;20448;-85
2021/04/30 12:04:10;;;;;;;7.80;7.10;;;;;;;;;;4942888;29;20447;-84
2021/04/30 12:06:39;;;;;;;6.40;5.90;;;;;;;;;;5049699;28;20439;-84
2021/04/30 12:09:10;;;;;;;7.70;7.03;;;;;;;;;;5048482;28;20414;-85
2021/04/30 12:11:36;;;;;;;6.50;5.90;;;;;;;;;;4965763;28;20432;-85
2021/04/30 12:14:56;;;;;;;7.70;6.90;;;;;;;;;;4946072;28;20494;-84
2021/04/30 12:17:31;;;;;;;7.03;6.50;;;;;;;;;;5194312;23;20489;-85
2021/04/30 12:19:57;;;;;;;6.90;6.30;;;;;;;;;;5022906;28;20452;-81
2021/04/30 12:22:39;;;;;;;8.10;7.40;;;;;;;;;;5008652;28;20422;-85
2021/04/30 12:25:17;;;;;;;9.30;7.73;;;;;;;;;;5085724;23;20497;-83
2021/04/30 12:27:44;;;;;;;14.27;11.47;;;;;;;;;;5032816;28;20453;-82
2021/04/30 12:30:11;;;;;;;9.00;7.40;;;;;;;;;;5032341;28;20477;-82
2021/04/30 12:32:37;;;;;;;7.73;7.07;;;;;;;;;;5063210;28;20410;-82
2021/04/30 12:35:04;;;;;;;8.70;7.60;;;;;;;;;;5029827;28;20534;-82
2021/04/30 12:37:30;;;;;;;10.63;9.73;;;;;;;;;;5047952;28;20551;-83
2021/04/30 12:40:01;;;;;;;10.70;9.60;;;;;;;;;;5063474;28;20800;-84
2021/04/30 12:42:27;;;;;;;9.03;8.23;;;;;;;;;;5046795;28;20398;-83
2021/04/30 12:44:59;;;;;;;7.70;7.00;;;;;;;;;;5049438;28;20438;-82
2021/04/30 12:47:25;;;;;;;7.80;7.10;;;;;;;;;;5066226;28;20423;-83
2021/04/30 12:49:55;;;;;;;8.27;7.47;;;;;;;;;;5066676;28;20402;-83
2021/04/30 12:52:21;;;;;;;8.17;7.47;;;;;;;;;;5052632;28;20485;-83
2021/04/30 12:54:48;;;;;;;9.33;8.50;;;;;;;;;;5053157;28;20440;-81
2021/04/30 12:57:15;;;;;;;8.57;7.87;;;;;;;;;;5047933;28;20409;-83
2021/04/30 12:59:57;;;;;;;11.43;10.43;;;;;;;;;;5044149;28;20573;-81
2021/04/30 13:02:30;;;;;;;9.37;8.63;;;;;;;;;;5044346;28;20425;-82
2021/04/30 13:04:57;;;;;;;8.80;7.00;;;;;;;;;;5046234;28;20445;-83
2021/04/30 13:07:24;;;;;;;8.57;7.87;;;;;;;;;;5046406;28;20521;-82
2021/04/30 13:10:00;;;;;;;8.27;7.57;;;;;;;;;;5047154;28;20441;-82
2021/04/30 13:13:16;;;;;;;9.00;8.30;;;;;;;;;;5049433;28;20446;-84
2021/04/30 13:16:02;;;;;;;10.23;9.30;;;;;;;;;;5045636;28;20410;-83
2021/04/30 13:18:38;;;;;;;11.10;10.03;;;;;;;;;;5046559;28;20449;-81
2021/04/30 13:21:05;;;;;;;8.40;7.70;;;;;;;;;;5046220;28;20567;-82
2021/04/30 13:23:32;;;;;;;9.60;8.77;;;;;;;;;;5047656;28;20418;-85
2021/04/30 13:25:58;;;;;;;10.37;9.57;;;;;;;;;;5065931;28;20402;-81
2021/04/30 13:28:27;;;;;;;10.00;9.20;;;;;;;;;;5052320;28;20501;-82
2021/04/30 13:30:54;;;;;;;9.97;9.07;;;;;;;;;;5073797;28;20432;-85
2021/04/30 13:33:22;;;;;;;10.07;9.10;;;;;;;;;;5058868;28;20438;-83
2021/04/30 13:35:49;;;;;;;11.13;10.10;;;;;;;;;;5042067;28;20414;-81
2021/04/30 13:38:25;;;;;;;10.90;9.97;;;;;;;;;;5059022;28;20390;-83
2021/04/30 13:40:51;;;;;;;10.17;9.27;;;;;;;;;;5052030;28;20868;-84
2021/04/30 13:43:43;;;;;;;10.63;9.63;;;;;;;;;;5047401;28;20466;-83
2021/04/30 13:46:11;;;;;;;10.90;10.00;;;;;;;;;;5063168;28;20899;-82
2021/04/30 13:48:41;;;;;;;9.50;8.60;;;;;;;;;;5048862;28;20414;-83
2021/04/30 13:51:10;;;;;;;8.80;8.10;;;;;;;;;;5046571;28;20400;-83
2021/04/30 13:53:37;;;;;;;10.73;9.70;;;;;;;;;;5062227;28;20744;-84
2021/04/30 13:56:04;;;;;;;11.73;10.73;;;;;;;;;;5046134;28;20434;-82
2021/04/30 13:58:31;;;;;;;11.63;10.50;;;;;;;;;;5044171;28;20390;-83
2021/04/30 14:01:24;;;;;;;11.23;8.53;;;;;;;;;;5047069;28;20431;-83
2021/04/30 14:03:51;;;;;;;11.00;10.23;;;;;;;;;;5060613;28;20480;-84
2021/04/30 14:06:17;;;;;;;9.80;9.00;;;;;;;;;;5045319;28;20410;-82
2021/04/30 14:08:46;;;;;;;9.70;9.00;;;;;;;;;;5046978;28;20431;-83
2021/04/30 14:11:12;;;;;;;10.03;8.57;;;;;;;;;;5047005;28;20398;-82
2021/04/30 14:13:38;;;;;;;9.90;9.10;;;;;;;;;;5062702;28;20800;-84
2021/04/30 14:16:06;;;;;;;9.57;8.87;;;;;;;;;;5046489;28;20429;-83
2021/04/30 14:18:32;;;;;;;10.67;9.73;;;;;;;;;;5049418;28;20382;-83
2021/04/30 14:20:59;;;;;;;10.23;9.03;;;;;;;;;;5049461;28;20906;-84
2021/04/30 14:23:25;;;;;;;10.17;9.20;;;;;;;;;;5048316;28;20430;-84
2021/04/30 14:25:51;;;;;;;11.00;10.00;;;;;;;;;;5047941;28;20410;-84
2021/04/30 14:28:17;;;;;;;13.30;12.03;;;;;;;;;;5045948;28;20899;-83
2021/04/30 14:30:45;;;;;;;10.07;9.17;;;;;;;;;;5045578;28;20442;-84
2021/04/30 14:33:11;;;;;;;9.27;8.43;;;;;;;;;;5047429;28;20406;-84
2021/04/30 14:35:37;;;;;;;9.43;8.63;;;;;;;;;;5045214;28;20421;-83
2021/04/30 14:38:03;;;;;;;13.43;9.77;;;;;;;;;;5062820;28;20410;-84
2021/04/30 14:40:30;;;;;;;10.67;9.67;;;;;;;;;;5045182;28;20867;-84
2021/04/30 14:42:58;;;;;;;9.60;8.60;;;;;;;;;;5044528;28;20409;-82
2021/04/30 14:45:24;;;;;;;9.07;8.27;;;;;;;;;;5049031;28;20770;-83
2021/04/30 14:47:50;;;;;;;8.33;7.73;;;;;;;;;;5043904;28;20417;-84
2021/04/30 14:50:19;;;;;;;8.53;7.83;;;;;;;;;;5060573;28;20406;-82
2021/04/30 14:52:45;;;;;;;10.53;9.53;;;;;;;;;;5046614;28;20463;-83
2021/04/30 14:55:12;;;;;;;10.33;9.37;;;;;;;;;;5060515;28;20427;-83
2021/04/30 14:57:43;;;;;;;9.50;8.77;;;;;;;;;;5059877;28;20434;-84
2021/04/30 15:00:10;;;;;;;10.80;9.63;;;;;;;;;;5063100;28;20449;-84
2021/04/30 15:02:36;;;;;;;9.90;8.93;;;;;;;;;;5045446;28;20412;-82
2021/04/30 15:05:02;;;;;;;9.73;8.83;;;;;;;;;;5044489;28;20429;-83
2021/04/30 15:07:28;;;;;;;9.43;8.43;;;;;;;;;;5046143;28;20422;-83
2021/04/30 15:09:57;;;;;;;8.07;7.43;;;;;;;;;;5046181;28;20425;-83
2021/04/30 15:12:24;;;;;;;9.30;8.37;;;;;;;;;;5048048;28;20397;-83
2021/04/30 15:14:51;;;;;;;8.80;8.03;;;;;;;;;;5054907;28;20448;-83
2021/04/30 15:17:17;;;;;;;10.57;9.23;;;;;;;;;;5055962;28;20416;-84
2021/04/30 15:19:43;;;;;;;8.93;8.23;;;;;;;;;;5072811;28;20460;-85
2021/04/30 15:22:09;;;;;;;9.17;8.27;;;;;;;;;;5048615;28;20416;-85
2021/04/30 15:24:38;;;;;;;8.43;7.53;;;;;;;;;;5043361;28;20483;-83
2021/04/30 15:27:04;;;;;;;9.00;8.23;;;;;;;;;;5043380;28;20460;-82
2021/04/30 15:29:31;;;;;;;9.27;8.47;;;;;;;;;;5058737;28;20910;-84
2021/04/30 15:31:58;;;;;;;9.10;8.40;;;;;;;;;;5043725;28;20467;-84
2021/04/30 15:34:24;;;;;;;10.13;9.23;;;;;;;;;;5047498;28;20430;-84
2021/04/30 15:36:53;;;;;;;8.97;8.10;;;;;;;;;;5045770;28;20414;-84
2021/04/30 15:39:21;;;;;;;12.90;8.73;;;;;;;;;;5045940;28;20553;-82
2021/04/30 15:41:47;;;;;;;9.90;9.10;;;;;;;;;;5064755;28;20407;-84
2021/04/30 15:44:13;;;;;;;10.60;9.70;;;;;;;;;;5065473;28;20616;-85
2021/04/30 15:46:39;;;;;;;10.83;9.80;;;;;;;;;;5050048;28;20780;-83
2021/04/30 15:49:06;;;;;;;10.07;8.93;;;;;;;;;;5051986;28;20410;-83
2021/04/30 15:51:35;;;;;;;11.97;8.67;;;;;;;;;;5050819;28;20432;-84
2021/04/30 15:54:10;;;;;;;11.13;10.10;;;;;;;;;;5050747;28;20920;-84
2021/04/30 15:56:37;;;;;;;8.70;8.00;;;;;;;;;;5049497;28;20520;-84
2021/04/30 15:59:03;;;;;;;11.10;9.93;;;;;;;;;;5047959;28;20449;-84
2021/04/30 16:01:30;;;;;;;10.50;9.70;;;;;;;;;;5063792;28;20421;-82
2021/04/30 16:03:56;;;;;;;8.87;8.13;;;;;;;;;;5046770;28;20440;-84
2021/04/30 16:06:22;;;;;;;9.30;8.40;;;;;;;;;;5048376;28;20416;-83
2021/04/30 16:08:49;;;;;;;9.10;8.30;;;;;;;;;;5064169;28;20417;-84
2021/04/30 16:11:15;;;;;;;8.80;8.00;;;;;;;;;;5052158;28;20421;-82
2021/04/30 16:13:41;;;;;;;9.50;8.70;;;;;;;;;;5046194;28;20493;-83
2021/04/30 16:16:08;;;;;;;8.63;7.93;;;;;;;;;;5046821;28;20515;-82
2021/04/30 16:18:34;;;;;;;9.17;8.37;;;;;;;;;;5044646;28;20815;-84
2021/04/30 16:21:01;;;;;;;7.87;7.10;;;;;;;;;;5062442;28;20407;-84
2021/04/30 16:23:28;;;;;;;6.40;5.90;;;;;;;;;;5044595;28;20414;-84
2021/04/30 16:25:57;;;;;;;8.07;7.37;;;;;;;;;;5046200;28;20795;-85
2021/04/30 16:28:30;;;;;;;8.80;7.03;;;;;;;;;;5045929;28;20402;-85
2021/04/30 16:31:18;;;;;;;7.50;6.80;;;;;;;;;;5046497;28;20406;-86
2021/04/30 16:33:53;;;;;;;9.30;7.13;;;;;;;;;;5041757;28;20449;-85
2021/04/30 16:36:44;;;;;;;8.13;7.53;;;;;;;;;;5045886;28;20428;-85
2021/04/30 16:39:42;;;;;;;8.53;7.73;;;;;;;;;;5064902;28;20570;-85
2021/04/30 16:42:13;;;;;;;6.30;5.80;;;;;;;;;;5045750;28;20430;-85
2021/04/30 16:44:39;;;;;;;6.83;6.20;;;;;;;;;;5045875;28;20529;-83
2021/04/30 16:47:14;;;;;;;6.17;5.67;;;;;;;;;;5062200;28;20421;-85
2021/04/30 16:49:40;;;;;;;5.40;5.00;;;;;;;;;;5063102;28;20447;-83
2021/04/30 16:52:06;;;;;;;6.80;6.10;;;;;;;;;;5044053;28;20426;-83
2021/04/30 16:54:36;;;;;;;9.37;6.93;;;;;;;;;;5055218;28;20414;-83
2021/04/30 16:57:03;;;;;;;6.73;6.20;;;;;;;;;;5059472;28;20441;-84
2021/04/30 16:59:29;;;;;;;9.00;6.67;;;;;;;;;;5058641;28;20469;-84
2021/04/30 17:01:55;;;;;;;9.33;6.50;;;;;;;;;;5053834;28;20899;-83
2021/04/30 17:04:22;;;;;;;8.07;7.47;;;;;;;;;;5045876;28;20560;-84
2021/04/30 17:06:48;;;;;;;6.53;5.93;;;;;;;;;;5046059;28;20477;-82
2021/04/30 17:09:14;;;;;;;7.33;6.67;;;;;;;;;;5062044;28;20478;-81
2021/04/30 17:11:40;;;;;;;7.27;6.57;;;;;;;;;;5062159;28;20517;-84
2021/04/30 17:14:06;;;;;;;6.80;6.30;;;;;;;;;;5062271;28;20443;-82
2021/04/30 17:16:33;;;;;;;8.47;7.10;;;;;;;;;;5061750;28;20425;-82
2021/04/30 17:18:59;;;;;;;8.77;8.07;;;;;;;;;;5047458;28;20448;-82
2021/04/30 17:21:25;;;;;;;8.23;7.50;;;;;;;;;;5045643;28;20410;-83
2021/04/30 17:23:52;;;;;;;9.70;7.47;;;;;;;;;;5047102;28;20446;-82
2021/04/30 17:26:18;;;;;;;9.20;8.40;;;;;;;;;;5045859;28;20426;-83
2021/04/30 17:28:44;;;;;;;8.43;7.73;;;;;;;;;;5062646;28;20484;-83
2021/04/30 17:31:11;;;;;;;11.33;6.37;;;;;;;;;;5050218;28;20414;-83
2021/04/30 17:33:37;;;;;;;8.80;8.07;;;;;;;;;;5047906;28;20491;-84
2021/04/30 17:36:03;;;;;;;8.13;7.50;;;;;;;;;;5046869;28;20460;-82
2021/04/30 17:38:37;;;;;;;9.07;8.27;;;;;;;;;;5046831;28;20483;-84
2021/04/30 17:41:03;;;;;;;7.50;6.60;;;;;;;;;;5063408;28;20386;-84
2021/04/30 17:43:29;;;;;;;9.30;8.00;;;;;;;;;;5048586;28;20408;-84
2021/04/30 17:45:56;;;;;;;7.47;6.80;;;;;;;;;;5047463;28;20421;-85
2021/04/30 17:48:22;;;;;;;9.73;7.23;;;;;;;;;;5046672;28;20418;-83
2021/04/30 17:50:50;;;;;;;6.87;6.37;;;;;;;;;;5047724;28;20414;-84
2021/04/30 17:53:17;;;;;;;8.10;7.43;;;;;;;;;;5046998;28;20434;-82
2021/04/30 17:55:43;;;;;;;8.67;7.70;;;;;;;;;;5047785;28;20441;-84
2021/04/30 17:58:12;;;;;;;7.30;6.70;;;;;;;;;;5047649;28;20433;-83
2021/04/30 18:00:38;;;;;;;8.67;7.97;;;;;;;;;;5047896;28;20449;-83
2021/04/30 18:03:04;;;;;;;8.27;7.53;;;;;;;;;;5062935;28;20765;-83
2021/04/30 18:05:31;;;;;;;7.83;7.13;;;;;;;;;;5046826;28;20431;-83
2021/04/30 18:07:57;;;;;;;7.07;6.57;;;;;;;;;;5048703;28;20411;-82
2021/04/30 18:10:26;;;;;;;8.37;7.60;;;;;;;;;;5048471;28;20418;-84
2021/04/30 18:12:55;;;;;;;6.57;6.07;;;;;;;;;;5046173;28;20410;-83
2021/04/30 18:15:22;;;;;;;6.97;6.47;;;;;;;;;;5046895;28;20434;-82
2021/04/30 18:17:48;;;;;;;6.77;6.27;;;;;;;;;;5064383;28;20423;-83
2021/04/30 18:20:15;;;;;;;7.07;6.37;;;;;;;;;;5046040;28;20453;-83
2021/04/30 18:22:42;;;;;;;7.30;6.60;;;;;;;;;;5047154;28;20445;-83
2021/04/30 18:25:14;;;;;;;7.33;6.63;;;;;;;;;;5081024;23;20979;-86
2021/04/30 18:28:17;;;;;;;6.50;5.93;;;;;;;;;;5020429;28;21001;-87
2021/04/30 18:30:43;;;;;;;7.00;6.40;;;;;;;;;;5024593;28;20442;-86
2021/04/30 18:33:12;;;;;;;5.73;5.33;;;;;;;;;;5024431;28;20415;-87
2021/04/30 18:35:56;;;;;;;5.70;5.20;;;;;;;;;;5026718;28;20414;-89
2021/04/30 18:38:23;;;;;;;6.90;6.40;;;;;;;;;;5023434;28;20415;-86
2021/04/30 18:40:49;;;;;;;6.43;5.50;;;;;;;;;;5023095;28;20522;-87
2021/04/30 18:43:21;;;;;;;6.07;5.67;;;;;;;;;;5024755;28;20859;-86
2021/04/30 18:46:07;;;;;;;5.87;5.37;;;;;;;;;;5025642;28;20424;-87
2021/04/30 18:48:34;;;;;;;4.87;4.47;;;;;;;;;;5008578;28;20442;-86
2021/04/30 18:51:03;;;;;;;5.50;5.00;;;;;;;;;;5023764;28;20418;-87
2021/04/30 18:53:30;;;;;;;6.83;5.87;;;;;;;;;;5024583;28;20433;-86
2021/04/30 18:56:05;;;;;;;6.53;5.93;;;;;;;;;;5026865;28;20765;-87